createdAt,value
2023-02-18T00:01:22.241Z,10.38
2023-02-18T00:03:45.873Z,10.27
2023-02-18T00:06:19.396Z,10.21
2023-02-18T00:08:43.328Z,10.15
2023-02-18T00:11:06.868Z,10.07
2023-02-18T00:13:29.566Z,10.03
2023-02-18T00:15:52.197Z,10.11
2023-02-18T00:18:14.908Z,10.27
2023-02-18T00:20:39.660Z,10.52
2023-02-18T00:23:03.430Z,10.69
2023-02-18T00:25:27.068Z,10.80
2023-02-18T00:27:49.658Z,11.01
2023-02-18T00:30:12.720Z,11.11
2023-02-18T00:32:36.047Z,11.28
2023-02-18T00:34:58.706Z,11.47
2023-02-18T00:37:21.386Z,11.65
2023-02-18T00:39:45.396Z,11.75
2023-02-18T00:42:09.242Z,11.93
2023-02-18T00:44:31.821Z,12.07
2023-02-18T00:46:54.474Z,12.23
2023-02-18T00:49:17.391Z,12.27
2023-02-18T00:51:41.288Z,12.30
2023-02-18T00:54:03.905Z,12.36
2023-02-18T00:56:27.559Z,12.34
2023-02-18T00:58:51.975Z,12.40
2023-02-18T01:01:14.957Z,12.48
2023-02-18T01:03:38.969Z,12.58
2023-02-18T01:06:01.759Z,12.64
2023-02-18T01:08:24.420Z,12.72
2023-02-18T01:10:49.079Z,12.71
2023-02-18T01:13:13.096Z,12.68
2023-02-18T01:15:35.713Z,12.64
2023-02-18T01:17:59.137Z,12.60
2023-02-18T01:20:22.193Z,12.42
2023-02-18T01:22:45.246Z,12.42
2023-02-18T01:25:10.098Z,12.50
2023-02-18T01:27:33.208Z,12.64
2023-02-18T01:29:58.280Z,12.91
2023-02-18T01:32:21.051Z,12.99
2023-02-18T01:34:44.795Z,13.03
2023-02-18T01:37:07.427Z,13.05
2023-02-18T01:39:31.924Z,13.09
2023-02-18T01:41:54.799Z,13.09
2023-02-18T01:44:21.308Z,13.12
2023-02-18T01:46:44.216Z,13.07
2023-02-18T01:49:07.619Z,13.06
2023-02-18T01:51:34.232Z,13.09
2023-02-18T01:54:03.176Z,13.09
2023-02-18T01:56:37.772Z,13.12
2023-02-18T01:59:03.815Z,13.07
2023-02-18T02:01:27.416Z,13.10
2023-02-18T02:03:50.126Z,13.12
2023-02-18T02:06:20.112Z,13.12
2023-02-18T02:08:49.266Z,13.10
2023-02-18T02:11:50.338Z,13.05
2023-02-18T02:14:44.058Z,12.87
2023-02-18T02:17:18.840Z,12.79
2023-02-18T02:20:36.454Z,12.71
2023-02-18T02:23:11.281Z,12.71
2023-02-18T02:26:02.431Z,12.75
2023-02-18T02:28:26.714Z,12.78
2023-02-18T02:31:26.930Z,12.74
2023-02-18T02:34:06.784Z,12.85
2023-02-18T02:36:36.738Z,12.95
2023-02-18T02:39:25.928Z,13.00
2023-02-18T02:42:15.502Z,13.15
2023-02-18T02:44:58.600Z,13.17
2023-02-18T02:47:37.802Z,13.17
2023-02-18T02:50:08.255Z,13.22
2023-02-18T02:52:39.899Z,13.19
2023-02-18T02:55:08.491Z,13.22
2023-02-18T02:57:31.335Z,13.16
2023-02-18T03:00:10.183Z,13.10
2023-02-18T03:02:51.423Z,13.05
2023-02-18T03:05:35.255Z,13.05
2023-02-18T03:08:16.695Z,13.02
2023-02-18T03:10:57.439Z,12.99
2023-02-18T03:13:39.176Z,13.02
2023-02-18T03:16:11.596Z,12.89
2023-02-18T03:18:40.247Z,12.81
2023-02-18T03:21:34.922Z,12.74
2023-02-18T03:24:03.830Z,12.74
2023-02-18T03:26:30.838Z,12.79
2023-02-18T03:28:59.290Z,12.91
2023-02-18T03:31:25.601Z,12.91
2023-02-18T03:33:54.519Z,12.91
2023-02-18T03:36:18.770Z,12.95
2023-02-18T03:38:47.099Z,12.91
2023-02-18T03:41:10.535Z,12.88
2023-02-18T03:43:34.348Z,12.85
2023-02-18T03:45:57.383Z,12.81
2023-02-18T03:48:20.066Z,12.84
2023-02-18T03:50:42.737Z,12.74
2023-02-18T03:53:05.462Z,12.71
2023-02-18T03:55:28.308Z,12.58
2023-02-18T03:57:51.010Z,12.47
2023-02-18T04:00:14.000Z,12.44
2023-02-18T04:02:36.685Z,12.41
2023-02-18T04:05:00.282Z,12.40
2023-02-18T04:07:22.973Z,12.36
2023-02-18T04:09:45.701Z,12.24
2023-02-18T04:12:08.456Z,12.16
2023-02-18T04:14:31.190Z,12.04
2023-02-18T04:16:53.809Z,11.85
2023-02-18T04:19:16.899Z,11.75
2023-02-18T04:21:39.643Z,11.62
2023-02-18T04:24:02.381Z,11.48
2023-02-18T04:26:25.050Z,11.34
2023-02-18T04:28:47.614Z,11.44
2023-02-18T04:31:11.798Z,11.82
2023-02-18T04:33:34.955Z,12.21
2023-02-18T04:35:57.677Z,12.40
2023-02-18T04:38:20.483Z,12.47
2023-02-18T04:40:43.029Z,12.68
2023-02-18T04:43:05.626Z,12.79
2023-02-18T04:45:29.192Z,12.79
2023-02-18T04:47:51.862Z,12.78
2023-02-18T04:50:14.586Z,12.79
2023-02-18T04:52:37.678Z,12.89
2023-02-18T04:55:00.342Z,12.93
2023-02-18T04:57:22.908Z,13.00
2023-02-18T04:59:45.729Z,13.05
2023-02-18T05:02:08.387Z,13.09
2023-02-18T05:04:31.449Z,13.07
2023-02-18T05:06:54.223Z,13.06
2023-02-18T05:09:16.922Z,13.13
2023-02-18T05:11:39.667Z,13.09
2023-02-18T05:14:02.244Z,13.12
2023-02-18T05:16:24.788Z,13.13
2023-02-18T05:18:47.482Z,13.17
2023-02-18T05:21:12.101Z,13.19
2023-02-18T05:23:34.757Z,13.26
2023-02-18T05:25:57.534Z,13.28
2023-02-18T05:28:20.203Z,13.33
2023-02-18T05:30:42.978Z,13.33
2023-02-18T05:33:06.629Z,13.33
2023-02-18T05:35:29.290Z,13.32
2023-02-18T05:37:52.243Z,13.24
2023-02-18T05:40:14.882Z,13.27
2023-02-18T05:42:37.521Z,13.28
2023-02-18T05:45:00.246Z,13.27
2023-02-18T05:47:22.891Z,13.30
2023-02-18T05:49:45.637Z,13.34
2023-02-18T05:52:09.219Z,13.33
2023-02-18T05:54:32.668Z,13.34
2023-02-18T05:56:55.296Z,13.39
2023-02-18T05:59:18.647Z,13.43
2023-02-18T06:01:41.440Z,13.34
2023-02-18T06:04:04.114Z,13.22
2023-02-18T06:06:26.839Z,13.23
2023-02-18T06:08:49.484Z,13.19
2023-02-18T06:11:12.073Z,13.24
2023-02-18T06:13:34.685Z,13.24
2023-02-18T06:15:57.762Z,13.19
2023-02-18T06:18:20.787Z,13.15
2023-02-18T06:20:43.403Z,13.19
2023-02-18T06:23:07.612Z,13.13
2023-02-18T06:25:30.335Z,13.10
2023-02-18T06:27:52.939Z,13.07
2023-02-18T06:30:16.910Z,13.07
2023-02-18T06:32:39.686Z,13.03
2023-02-18T06:35:02.815Z,12.92
2023-02-18T06:37:25.688Z,12.99
2023-02-18T06:39:48.305Z,12.99
2023-02-18T06:42:10.975Z,12.91
2023-02-18T06:44:33.733Z,12.99
2023-02-18T06:46:56.382Z,12.99
2023-02-18T06:49:19.050Z,12.77
2023-02-18T06:51:41.961Z,12.75
2023-02-18T06:54:06.057Z,12.72
2023-02-18T06:56:30.720Z,12.64
2023-02-18T06:58:53.775Z,12.55
2023-02-18T07:01:16.515Z,12.52
2023-02-18T07:03:39.278Z,12.51
2023-02-18T07:06:01.906Z,12.41
2023-02-18T07:08:24.715Z,12.37
2023-02-18T07:10:48.125Z,12.41
2023-02-18T07:13:10.877Z,12.44
2023-02-18T07:15:33.669Z,12.38
2023-02-18T07:17:56.498Z,12.52
2023-02-18T07:20:21.228Z,12.55
2023-02-18T07:22:43.947Z,12.64
2023-02-18T07:25:06.951Z,12.64
2023-02-18T07:27:29.591Z,12.71
2023-02-18T07:29:52.184Z,12.69
2023-02-18T07:32:16.974Z,12.85
2023-02-18T07:34:39.846Z,12.79
2023-02-18T07:37:24.468Z,12.82
2023-02-18T07:39:47.472Z,12.87
2023-02-18T07:42:11.349Z,12.92
2023-02-18T07:44:34.239Z,12.93
2023-02-18T07:46:57.324Z,12.78
2023-02-18T07:49:19.945Z,12.78
2023-02-18T07:51:42.575Z,12.84
2023-02-18T07:54:05.365Z,12.85
2023-02-18T07:56:27.974Z,12.88
2023-02-18T07:58:50.823Z,13.05
2023-02-18T08:01:15.470Z,13.23
2023-02-18T08:03:38.397Z,13.32
2023-02-18T08:06:02.286Z,13.50
2023-02-18T08:08:28.330Z,13.50
2023-02-18T08:10:53.041Z,13.77
2023-02-18T08:13:15.750Z,13.94
2023-02-18T08:15:38.464Z,13.89
2023-02-18T08:18:01.619Z,14.11
2023-02-18T08:20:24.329Z,14.15
2023-02-18T08:22:46.951Z,14.09
2023-02-18T08:25:15.748Z,14.06
2023-02-18T08:27:50.535Z,14.08
2023-02-18T08:30:13.871Z,14.09
2023-02-18T08:32:37.237Z,14.02
2023-02-18T08:34:59.808Z,14.06
2023-02-18T08:37:23.896Z,14.11
2023-02-18T08:39:46.565Z,14.26
2023-02-18T08:42:09.287Z,14.33
2023-02-18T08:44:32.478Z,14.71
2023-02-18T08:46:55.378Z,15.06
2023-02-18T08:49:20.953Z,15.36
2023-02-18T08:51:43.806Z,15.66
2023-02-18T08:54:06.653Z,16.12
2023-02-18T08:56:29.560Z,16.08
2023-02-18T08:58:52.255Z,15.87
2023-02-18T09:01:15.148Z,15.83
2023-02-18T09:03:38.242Z,15.71
2023-02-18T09:06:01.514Z,16.00
2023-02-18T09:08:24.044Z,16.05
2023-02-18T09:10:46.745Z,16.21
2023-02-18T09:13:09.346Z,16.32
2023-02-18T09:15:32.607Z,16.39
2023-02-18T09:17:55.450Z,16.56
2023-02-18T09:20:18.203Z,16.60
2023-02-18T09:22:40.894Z,16.46
2023-02-18T09:25:04.204Z,16.26
2023-02-18T09:27:26.863Z,16.00
2023-02-18T09:29:50.916Z,16.04
2023-02-18T09:32:19.955Z,16.14
2023-02-18T09:34:48.314Z,16.18
2023-02-18T09:37:11.186Z,16.36
2023-02-18T09:39:34.137Z,16.32
2023-02-18T09:42:02.443Z,16.41
2023-02-18T09:44:32.539Z,16.39
2023-02-18T09:47:00.884Z,16.66
2023-02-18T09:49:26.498Z,16.73
2023-02-18T09:51:49.720Z,16.86
2023-02-18T09:54:16.640Z,16.86
2023-02-18T09:56:40.960Z,16.84
2023-02-18T09:59:06.207Z,16.62
2023-02-18T10:01:36.987Z,16.60
2023-02-18T10:04:04.721Z,16.36
2023-02-18T10:06:33.474Z,16.25
2023-02-18T10:09:00.325Z,16.08
2023-02-18T10:11:33.367Z,16.31
2023-02-18T10:13:57.544Z,16.31
2023-02-18T10:16:22.179Z,16.24
2023-02-18T10:18:49.366Z,16.42
2023-02-18T10:21:14.832Z,16.38
2023-02-18T10:23:40.725Z,16.52
2023-02-18T10:26:07.566Z,16.49
2023-02-18T10:28:31.790Z,16.45
2023-02-18T10:31:02.215Z,16.86
2023-02-18T10:33:28.439Z,16.99
2023-02-18T10:36:12.633Z,17.25
2023-02-18T10:39:00.220Z,17.65
2023-02-18T10:41:34.867Z,17.65
2023-02-18T10:44:04.028Z,17.53
2023-02-18T10:46:31.421Z,17.51
2023-02-18T10:49:03.430Z,17.41
2023-02-18T10:51:36.210Z,17.10
2023-02-18T10:54:00.223Z,17.15
2023-02-18T10:56:34.237Z,17.14
2023-02-18T10:59:11.440Z,17.21
2023-02-18T11:01:34.463Z,17.17
2023-02-18T11:04:18.105Z,17.02
2023-02-18T11:06:46.426Z,17.30
2023-02-18T11:09:30.090Z,17.68
2023-02-18T11:12:08.404Z,17.72
2023-02-18T11:15:04.206Z,18.04
2023-02-18T11:17:31.326Z,18.13
2023-02-18T11:20:01.713Z,17.99
2023-02-18T11:22:29.512Z,18.14
2023-02-18T11:24:56.161Z,17.85
2023-02-18T11:27:43.867Z,18.00
2023-02-18T11:30:17.669Z,17.97
2023-02-18T11:32:40.531Z,18.20
2023-02-18T11:35:05.388Z,18.14
2023-02-18T11:37:28.139Z,18.17
2023-02-18T11:39:54.549Z,18.30
2023-02-18T11:42:21.876Z,18.58
2023-02-18T11:44:59.302Z,18.55
2023-02-18T11:47:34.434Z,18.18
2023-02-18T11:50:17.020Z,18.04
2023-02-18T11:52:43.347Z,17.79
2023-02-18T11:55:16.361Z,17.63
2023-02-18T11:57:43.212Z,17.41
2023-02-18T12:00:21.720Z,17.24
2023-02-18T12:02:44.495Z,16.96
2023-02-18T12:05:27.606Z,17.14
2023-02-18T12:08:12.350Z,17.20
2023-02-18T12:10:40.685Z,17.14
2023-02-18T12:13:23.368Z,17.28
2023-02-18T12:15:52.645Z,17.59
2023-02-18T12:18:39.254Z,17.66
2023-02-18T12:21:34.839Z,17.87
2023-02-18T12:24:12.111Z,17.99
2023-02-18T12:26:55.794Z,17.97
2023-02-18T12:29:27.366Z,17.97
2023-02-18T12:32:11.846Z,18.06
2023-02-18T12:34:55.614Z,17.90
2023-02-18T12:37:27.021Z,17.82
2023-02-18T12:40:01.667Z,17.66
2023-02-18T12:42:36.570Z,17.49
2023-02-18T12:45:27.139Z,17.58
2023-02-18T12:48:16.851Z,17.79
2023-02-18T12:50:48.543Z,17.86
2023-02-18T12:53:41.064Z,17.99
2023-02-18T12:56:32.989Z,18.28
2023-02-18T12:59:17.447Z,18.37
2023-02-18T13:02:40.475Z,18.34
2023-02-18T13:05:36.533Z,18.26
2023-02-18T13:08:19.332Z,18.11
2023-02-18T13:11:05.173Z,17.93
2023-02-18T13:13:39.352Z,17.99
2023-02-18T13:16:09.314Z,17.80
2023-02-18T13:18:36.030Z,17.76
2023-02-18T13:21:05.571Z,17.66
2023-02-18T13:23:43.247Z,17.69
2023-02-18T13:26:11.609Z,17.62
2023-02-18T13:28:43.084Z,17.63
2023-02-18T13:31:33.966Z,17.75
2023-02-18T13:34:04.651Z,17.69
2023-02-18T13:36:46.113Z,17.80
2023-02-18T13:39:20.518Z,17.45
2023-02-18T13:41:43.671Z,17.32
2023-02-18T13:44:30.694Z,17.35
2023-02-18T13:46:57.974Z,17.36
2023-02-18T13:49:24.542Z,17.25
2023-02-18T13:51:50.597Z,16.88
2023-02-18T13:54:14.101Z,16.87
2023-02-18T13:56:42.051Z,16.79
2023-02-18T13:59:18.874Z,16.67
2023-02-18T14:01:50.072Z,16.33
2023-02-18T14:04:37.688Z,16.07
2023-02-18T14:07:27.798Z,15.98
2023-02-18T14:09:51.429Z,15.97
2023-02-18T14:12:36.820Z,16.01
2023-02-18T14:14:59.756Z,15.86
2023-02-18T14:17:22.267Z,15.64
2023-02-18T14:20:00.023Z,15.46
2023-02-18T14:22:31.680Z,15.35
2023-02-18T14:25:04.418Z,15.38
2023-02-18T14:27:27.192Z,15.26
2023-02-18T14:29:52.375Z,15.06
2023-02-18T14:32:19.416Z,15.11
2023-02-18T14:34:47.907Z,15.01
2023-02-18T14:37:26.822Z,14.83
2023-02-18T14:40:20.591Z,14.57
2023-02-18T14:42:49.166Z,14.60
2023-02-18T14:45:19.495Z,14.51
2023-02-18T14:48:01.233Z,14.40
2023-02-18T14:50:24.677Z,14.39
2023-02-18T14:52:54.118Z,14.22
2023-02-18T14:55:39.078Z,14.09
2023-02-18T14:58:27.785Z,14.06
2023-02-18T15:00:50.385Z,14.00
2023-02-18T15:03:19.290Z,13.81
2023-02-18T15:05:43.007Z,13.70
2023-02-18T15:08:14.740Z,13.61
2023-02-18T15:10:42.068Z,13.37
2023-02-18T15:13:08.455Z,13.34
2023-02-18T15:15:34.039Z,13.27
2023-02-18T15:17:56.800Z,13.27
2023-02-18T15:20:20.056Z,13.09
2023-02-18T15:22:43.446Z,12.96
2023-02-18T15:25:06.662Z,12.69
2023-02-18T15:27:32.007Z,12.61
2023-02-18T15:30:18.124Z,12.50
2023-02-18T15:32:46.196Z,12.41
2023-02-18T15:35:17.922Z,12.23
2023-02-18T15:37:44.851Z,12.19
2023-02-18T15:40:16.313Z,12.07
2023-02-18T15:42:38.996Z,12.03
2023-02-18T15:45:41.810Z,11.94
2023-02-18T15:48:06.025Z,11.79
2023-02-18T15:50:45.663Z,11.69
2023-02-18T15:53:17.692Z,11.61
2023-02-18T15:55:42.293Z,11.54
2023-02-18T15:58:11.867Z,11.44
2023-02-18T16:00:42.750Z,11.32
2023-02-18T16:03:15.122Z,11.26
2023-02-18T16:05:41.096Z,11.21
2023-02-18T16:08:14.600Z,11.16
2023-02-18T16:10:47.134Z,11.06
2023-02-18T16:13:15.044Z,10.97
2023-02-18T16:15:40.252Z,10.93
2023-02-18T16:18:03.062Z,10.86
2023-02-18T16:20:32.998Z,10.90
2023-02-18T16:22:59.136Z,10.84
2023-02-18T16:25:41.375Z,10.88
2023-02-18T16:28:12.290Z,10.79
2023-02-18T16:30:35.807Z,10.73
2023-02-18T16:32:59.225Z,10.73
2023-02-18T16:35:23.305Z,10.72
2023-02-18T16:37:48.015Z,10.69
2023-02-18T16:40:22.649Z,10.61
2023-02-18T16:42:45.597Z,10.61
2023-02-18T16:45:12.537Z,10.58
2023-02-18T16:47:35.814Z,10.58
2023-02-18T16:50:02.873Z,10.46
2023-02-18T16:52:25.518Z,10.46
2023-02-18T16:54:48.374Z,10.38
2023-02-18T16:57:11.452Z,10.35
2023-02-18T16:59:34.275Z,10.41
2023-02-18T17:01:57.314Z,10.35
2023-02-18T17:04:20.454Z,10.32
2023-02-18T17:06:45.307Z,10.30
2023-02-18T17:09:22.967Z,10.28
2023-02-18T17:11:47.369Z,10.24
2023-02-18T17:14:13.790Z,10.22
2023-02-18T17:16:36.463Z,10.15
2023-02-18T17:18:59.346Z,10.13
2023-02-18T17:21:24.318Z,10.07
2023-02-18T17:23:47.657Z,10.10
2023-02-18T17:26:23.044Z,10.05
2023-02-18T17:28:46.101Z,9.98
2023-02-18T17:31:14.204Z,9.95
2023-02-18T17:33:37.009Z,9.91
2023-02-18T17:35:59.915Z,9.86
2023-02-18T17:38:22.868Z,9.77
2023-02-18T17:40:45.991Z,9.79
2023-02-18T17:43:16.778Z,9.79
2023-02-18T17:45:45.556Z,9.80
2023-02-18T17:48:09.296Z,9.69
2023-02-18T17:50:32.524Z,9.73
2023-02-18T17:52:55.557Z,9.67
2023-02-18T17:55:24.015Z,9.62
2023-02-18T17:57:47.778Z,9.57
2023-02-18T18:00:13.401Z,9.57
2023-02-18T18:02:36.745Z,9.55
2023-02-18T18:04:59.565Z,9.59
2023-02-18T18:07:22.879Z,9.49
2023-02-18T18:09:45.513Z,9.46
2023-02-18T18:12:13.959Z,9.38
2023-02-18T18:14:36.770Z,9.34
2023-02-18T18:17:00.300Z,9.28
2023-02-18T18:19:23.097Z,9.32
2023-02-18T18:21:47.097Z,9.31
2023-02-18T18:24:12.379Z,9.29
2023-02-18T18:26:36.310Z,9.21
2023-02-18T18:28:59.235Z,9.15
2023-02-18T18:31:22.302Z,9.19
2023-02-18T18:33:50.412Z,9.31
2023-02-18T18:36:13.381Z,9.40
2023-02-18T18:38:36.378Z,9.35
2023-02-18T18:40:59.521Z,9.35
2023-02-18T18:43:25.719Z,9.49
2023-02-18T18:45:49.563Z,9.52
2023-02-18T18:48:12.447Z,9.60
2023-02-18T18:50:39.310Z,9.67
2023-02-18T18:53:02.252Z,9.84
2023-02-18T18:55:25.151Z,9.80
2023-02-18T18:57:48.151Z,9.77
2023-02-18T19:00:12.067Z,9.76
2023-02-18T19:02:35.536Z,9.80
2023-02-18T19:04:58.447Z,9.94
2023-02-18T19:07:21.285Z,10.01
2023-02-18T19:09:44.303Z,10.05
2023-02-18T19:12:08.411Z,10.04
2023-02-18T19:14:31.704Z,10.03
2023-02-18T19:16:56.172Z,10.00
2023-02-18T19:19:21.110Z,10.15
2023-02-18T19:21:46.568Z,10.18
2023-02-18T19:24:10.163Z,10.15
2023-02-18T19:26:32.875Z,10.11
2023-02-18T19:28:55.707Z,10.07
2023-02-18T19:31:24.170Z,10.05
2023-02-18T19:33:47.566Z,10.00
2023-02-18T19:36:11.581Z,9.93
2023-02-18T19:38:34.566Z,9.93
2023-02-18T19:40:57.295Z,9.93
2023-02-18T19:43:20.174Z,9.90
2023-02-18T19:45:46.081Z,9.90
2023-02-18T19:48:09.892Z,9.84
2023-02-18T19:50:32.882Z,9.79
2023-02-18T19:52:56.242Z,9.83
2023-02-18T19:55:19.157Z,9.94
2023-02-18T19:57:42.136Z,10.11
2023-02-18T20:00:10.874Z,10.13
2023-02-18T20:02:37.056Z,10.24
2023-02-18T20:05:01.742Z,10.27
2023-02-18T20:07:24.655Z,10.34
2023-02-18T20:09:47.720Z,10.37
2023-02-18T20:12:11.460Z,10.37
2023-02-18T20:14:34.437Z,10.35
2023-02-18T20:16:58.069Z,10.37
2023-02-18T20:19:21.074Z,10.51
2023-02-18T20:21:43.710Z,10.52
2023-02-18T20:24:06.875Z,10.56
2023-02-18T20:26:29.751Z,10.62
2023-02-18T20:28:52.366Z,10.59
2023-02-18T20:31:16.872Z,10.63
2023-02-18T20:33:39.966Z,10.69
2023-02-18T20:36:05.214Z,10.66
2023-02-18T20:38:28.119Z,10.61
2023-02-18T20:40:51.036Z,10.55
2023-02-18T20:43:13.635Z,10.41
2023-02-18T20:45:36.539Z,10.32
2023-02-18T20:47:59.277Z,10.31
2023-02-18T20:50:21.940Z,10.30
2023-02-18T20:52:44.771Z,10.15
2023-02-18T20:55:07.956Z,9.91
2023-02-18T20:57:30.868Z,9.91
2023-02-18T20:59:54.935Z,9.69
2023-02-18T21:02:17.815Z,9.79
2023-02-18T21:04:40.455Z,9.75
2023-02-18T21:07:03.248Z,9.77
2023-02-18T21:09:26.176Z,9.90
2023-02-18T21:11:49.287Z,10.17
2023-02-18T21:14:12.323Z,10.63
2023-02-18T21:16:41.882Z,11.07
2023-02-18T21:19:05.856Z,11.38
2023-02-18T21:21:28.794Z,11.58
2023-02-18T21:23:52.290Z,11.72
2023-02-18T21:26:18.463Z,11.86
2023-02-18T21:28:42.417Z,11.87
2023-02-18T21:31:14.026Z,11.97
2023-02-18T21:33:37.068Z,12.07
2023-02-18T21:36:03.181Z,12.12
2023-02-18T21:38:26.003Z,12.20
2023-02-18T21:40:48.793Z,12.20
2023-02-18T21:43:12.248Z,12.24
2023-02-18T21:45:34.951Z,12.23
2023-02-18T21:48:20.512Z,12.14
2023-02-18T21:50:43.490Z,12.04
2023-02-18T21:53:06.350Z,12.04
2023-02-18T21:55:29.382Z,12.02
2023-02-18T21:57:51.975Z,12.02
2023-02-18T22:00:21.184Z,11.96
2023-02-18T22:02:44.534Z,11.87
2023-02-18T22:05:08.703Z,11.92
2023-02-18T22:07:31.399Z,12.00
2023-02-18T22:09:54.125Z,12.03
2023-02-18T22:12:17.749Z,12.10
2023-02-18T22:14:42.036Z,12.21
2023-02-18T22:17:06.105Z,12.40
2023-02-18T22:19:29.009Z,12.65
2023-02-18T22:21:52.077Z,12.75
2023-02-18T22:24:15.970Z,12.88
2023-02-18T22:26:38.570Z,12.82
2023-02-18T22:29:01.324Z,12.77
2023-02-18T22:31:25.536Z,12.87
2023-02-18T22:33:52.173Z,12.92
2023-02-18T22:36:14.960Z,12.96
2023-02-18T22:38:38.932Z,12.91
2023-02-18T22:41:10.782Z,12.87
2023-02-18T22:43:33.795Z,12.91
2023-02-18T22:45:56.538Z,12.85
2023-02-18T22:48:20.118Z,12.81
2023-02-18T22:50:42.748Z,12.67
2023-02-18T22:53:05.417Z,12.51
2023-02-18T22:55:28.087Z,12.51
2023-02-18T22:57:51.187Z,12.37
2023-02-18T23:00:15.002Z,12.38
2023-02-18T23:02:37.848Z,12.44
2023-02-18T23:05:00.450Z,12.40
2023-02-18T23:07:24.718Z,12.33
2023-02-18T23:09:47.484Z,12.33
2023-02-18T23:12:10.414Z,12.24
2023-02-18T23:14:35.679Z,12.21
2023-02-18T23:17:17.595Z,12.21
2023-02-18T23:19:42.038Z,12.20
2023-02-18T23:22:06.094Z,12.19
2023-02-18T23:24:28.711Z,12.16
2023-02-18T23:26:51.291Z,12.27
2023-02-18T23:29:14.614Z,12.31
2023-02-18T23:31:37.992Z,12.34
2023-02-18T23:34:01.544Z,12.37
2023-02-18T23:36:29.308Z,12.31
2023-02-18T23:38:56.061Z,12.31
2023-02-18T23:41:19.432Z,12.20
2023-02-18T23:44:24.217Z,12.31
2023-02-18T23:46:47.160Z,12.38
2023-02-18T23:49:13.366Z,12.31
2023-02-18T23:51:36.031Z,12.27
2023-02-18T23:54:02.031Z,12.26
2023-02-18T23:56:26.344Z,12.29
2023-02-18T23:58:54.982Z,12.33
